sensor_id;sensor_type;location;lat;lon;timestamp;P1;durP1;ratioP1;P2;durP2;ratioP2
66425;SDS011;53237;46.158;14.604;2022-10-19T00:00:10;21.67;;;15.80;;
66425;SDS011;53237;46.158;14.604;2022-10-19T00:02:36;17.48;;;15.57;;
66425;SDS011;53237;46.158;14.604;2022-10-19T00:05:02;19.23;;;15.30;;
66425;SDS011;53237;46.158;14.604;2022-10-19T00:07:28;17.75;;;14.65;;
66425;SDS011;53237;46.158;14.604;2022-10-19T00:09:54;21.17;;;16.35;;
66425;SDS011;53237;46.158;14.604;2022-10-19T00:12:20;19.33;;;16.35;;
66425;SDS011;53237;46.158;14.604;2022-10-19T00:14:46;17.25;;;15.27;;
66425;SDS011;53237;46.158;14.604;2022-10-19T00:17:12;17.38;;;15.32;;
66425;SDS011;53237;46.158;14.604;2022-10-19T00:19:38;16.95;;;15.18;;
66425;SDS011;53237;46.158;14.604;2022-10-19T00:22:04;17.77;;;14.93;;
66425;SDS011;53237;46.158;14.604;2022-10-19T00:24:30;17.67;;;15.10;;
66425;SDS011;53237;46.158;14.604;2022-10-19T00:26:56;17.88;;;15.27;;
66425;SDS011;53237;46.158;14.604;2022-10-19T00:29:22;15.93;;;14.23;;
66425;SDS011;53237;46.158;14.604;2022-10-19T00:31:49;16.35;;;14.60;;
66425;SDS011;53237;46.158;14.604;2022-10-19T00:34:18;16.85;;;15.02;;
66425;SDS011;53237;46.158;14.604;2022-10-19T00:36:44;17.00;;;15.20;;
66425;SDS011;53237;46.158;14.604;2022-10-19T00:39:12;17.30;;;15.40;;
66425;SDS011;53237;46.158;14.604;2022-10-19T00:41:42;15.75;;;14.07;;
66425;SDS011;53237;46.158;14.604;2022-10-19T00:46:38;16.90;;;15.10;;
66425;SDS011;53237;46.158;14.604;2022-10-19T00:49:10;15.98;;;14.30;;
66425;SDS011;53237;46.158;14.604;2022-10-19T00:51:41;16.90;;;14.63;;
66425;SDS011;53237;46.158;14.604;2022-10-19T00:54:08;16.05;;;14.45;;
66425;SDS011;53237;46.158;14.604;2022-10-19T00:56:35;17.55;;;15.23;;
66425;SDS011;53237;46.158;14.604;2022-10-19T00:59:03;17.80;;;15.80;;
66425;SDS011;53237;46.158;14.604;2022-10-19T01:01:30;16.42;;;14.73;;
66425;SDS011;53237;46.158;14.604;2022-10-19T01:03:57;16.30;;;14.60;;
66425;SDS011;53237;46.158;14.604;2022-10-19T01:06:23;16.45;;;14.57;;
66425;SDS011;53237;46.158;14.604;2022-10-19T01:08:50;16.55;;;14.75;;
66425;SDS011;53237;46.158;14.604;2022-10-19T01:11:28;16.35;;;14.65;;
66425;SDS011;53237;46.158;14.604;2022-10-19T01:31:59;16.75;;;14.82;;
66425;SDS011;53237;46.158;14.604;2022-10-19T01:36:59;16.67;;;14.93;;
66425;SDS011;53237;46.158;14.604;2022-10-19T01:42:13;17.67;;;14.23;;
66425;SDS011;53237;46.158;14.604;2022-10-19T01:44:50;16.85;;;15.05;;
66425;SDS011;53237;46.158;14.604;2022-10-19T01:47:22;18.80;;;15.90;;
66425;SDS011;53237;46.158;14.604;2022-10-19T01:52:17;16.35;;;14.55;;
66425;SDS011;53237;46.158;14.604;2022-10-19T01:54:46;17.80;;;15.43;;
66425;SDS011;53237;46.158;14.604;2022-10-19T01:57:15;22.55;;;16.52;;
66425;SDS011;53237;46.158;14.604;2022-10-19T01:59:42;19.25;;;15.75;;
66425;SDS011;53237;46.158;14.604;2022-10-19T02:02:09;20.45;;;16.50;;
66425;SDS011;53237;46.158;14.604;2022-10-19T02:04:36;18.92;;;15.40;;
66425;SDS011;53237;46.158;14.604;2022-10-19T02:07:02;18.55;;;15.27;;
66425;SDS011;53237;46.158;14.604;2022-10-19T02:09:29;19.08;;;15.73;;
66425;SDS011;53237;46.158;14.604;2022-10-19T02:11:56;20.50;;;15.98;;
66425;SDS011;53237;46.158;14.604;2022-10-19T02:14:23;18.17;;;15.85;;
66425;SDS011;53237;46.158;14.604;2022-10-19T02:16:54;35.05;;;17.48;;
66425;SDS011;53237;46.158;14.604;2022-10-19T02:19:22;21.58;;;16.42;;
66425;SDS011;53237;46.158;14.604;2022-10-19T02:21:48;19.85;;;15.63;;
66425;SDS011;53237;46.158;14.604;2022-10-19T02:24:15;19.02;;;16.27;;
66425;SDS011;53237;46.158;14.604;2022-10-19T02:26:40;19.33;;;16.63;;
66425;SDS011;53237;46.158;14.604;2022-10-19T02:29:07;18.35;;;16.38;;
66425;SDS011;53237;46.158;14.604;2022-10-19T02:31:33;20.27;;;16.70;;
66425;SDS011;53237;46.158;14.604;2022-10-19T02:33:59;20.95;;;16.13;;
66425;SDS011;53237;46.158;14.604;2022-10-19T02:36:25;23.20;;;16.60;;
66425;SDS011;53237;46.158;14.604;2022-10-19T02:38:52;27.02;;;17.40;;
66425;SDS011;53237;46.158;14.604;2022-10-19T02:41:22;18.55;;;15.90;;
66425;SDS011;53237;46.158;14.604;2022-10-19T02:43:50;18.17;;;15.27;;
66425;SDS011;53237;46.158;14.604;2022-10-19T02:48:47;19.65;;;15.70;;
66425;SDS011;53237;46.158;14.604;2022-10-19T02:51:27;22.25;;;15.77;;
66425;SDS011;53237;46.158;14.604;2022-10-19T02:53:53;17.10;;;14.40;;
66425;SDS011;53237;46.158;14.604;2022-10-19T02:56:19;18.60;;;15.77;;
66425;SDS011;53237;46.158;14.604;2022-10-19T02:58:46;18.80;;;15.02;;
66425;SDS011;53237;46.158;14.604;2022-10-19T03:01:12;18.83;;;15.48;;
66425;SDS011;53237;46.158;14.604;2022-10-19T03:03:38;22.17;;;17.15;;
66425;SDS011;53237;46.158;14.604;2022-10-19T03:06:04;17.88;;;15.68;;
66425;SDS011;53237;46.158;14.604;2022-10-19T03:08:30;16.80;;;14.90;;
66425;SDS011;53237;46.158;14.604;2022-10-19T03:10:59;18.35;;;16.20;;
66425;SDS011;53237;46.158;14.604;2022-10-19T03:13:25;16.90;;;14.48;;
66425;SDS011;53237;46.158;14.604;2022-10-19T03:15:51;18.27;;;15.45;;
66425;SDS011;53237;46.158;14.604;2022-10-19T03:18:17;18.00;;;14.98;;
66425;SDS011;53237;46.158;14.604;2022-10-19T03:20:43;45.00;;;17.90;;
66425;SDS011;53237;46.158;14.604;2022-10-19T03:23:09;150.27;;;23.48;;
66425;SDS011;53237;46.158;14.604;2022-10-19T03:25:35;21.25;;;15.65;;
66425;SDS011;53237;46.158;14.604;2022-10-19T03:28:01;19.08;;;15.57;;
66425;SDS011;53237;46.158;14.604;2022-10-19T03:30:27;21.58;;;16.38;;
66425;SDS011;53237;46.158;14.604;2022-10-19T03:32:53;20.25;;;15.48;;
66425;SDS011;53237;46.158;14.604;2022-10-19T03:35:19;17.40;;;15.52;;
66425;SDS011;53237;46.158;14.604;2022-10-19T03:37:45;23.65;;;16.42;;
66425;SDS011;53237;46.158;14.604;2022-10-19T03:40:11;17.48;;;15.60;;
66425;SDS011;53237;46.158;14.604;2022-10-19T03:42:37;18.02;;;15.63;;
66425;SDS011;53237;46.158;14.604;2022-10-19T03:45:03;18.98;;;16.88;;
66425;SDS011;53237;46.158;14.604;2022-10-19T03:47:29;19.35;;;16.02;;
66425;SDS011;53237;46.158;14.604;2022-10-19T03:49:55;17.63;;;15.35;;
66425;SDS011;53237;46.158;14.604;2022-10-19T03:52:21;15.95;;;14.20;;
66425;SDS011;53237;46.158;14.604;2022-10-19T03:54:50;15.23;;;13.65;;
66425;SDS011;53237;46.158;14.604;2022-10-19T03:57:16;17.63;;;15.13;;
66425;SDS011;53237;46.158;14.604;2022-10-19T03:59:43;17.13;;;14.82;;
66425;SDS011;53237;46.158;14.604;2022-10-19T04:02:08;18.05;;;15.85;;
66425;SDS011;53237;46.158;14.604;2022-10-19T04:04:34;20.83;;;15.63;;
66425;SDS011;53237;46.158;14.604;2022-10-19T04:07:00;15.23;;;13.63;;
66425;SDS011;53237;46.158;14.604;2022-10-19T04:09:26;18.02;;;15.35;;
66425;SDS011;53237;46.158;14.604;2022-10-19T04:11:52;18.80;;;15.27;;
66425;SDS011;53237;46.158;14.604;2022-10-19T04:14:19;17.45;;;14.27;;
66425;SDS011;53237;46.158;14.604;2022-10-19T04:16:46;16.60;;;14.23;;
66425;SDS011;53237;46.158;14.604;2022-10-19T04:19:12;17.85;;;14.20;;
66425;SDS011;53237;46.158;14.604;2022-10-19T04:21:39;17.08;;;14.02;;
66425;SDS011;53237;46.158;14.604;2022-10-19T04:24:15;17.05;;;14.45;;
66425;SDS011;53237;46.158;14.604;2022-10-19T04:26:42;17.60;;;14.15;;
66425;SDS011;53237;46.158;14.604;2022-10-19T04:29:09;20.40;;;14.75;;
66425;SDS011;53237;46.158;14.604;2022-10-19T04:31:35;16.83;;;14.95;;
66425;SDS011;53237;46.158;14.604;2022-10-19T04:34:02;18.10;;;15.23;;
66425;SDS011;53237;46.158;14.604;2022-10-19T04:36:28;19.85;;;15.45;;
66425;SDS011;53237;46.158;14.604;2022-10-19T04:38:54;16.48;;;13.85;;
66425;SDS011;53237;46.158;14.604;2022-10-19T04:41:20;17.98;;;14.45;;
66425;SDS011;53237;46.158;14.604;2022-10-19T04:43:46;18.50;;;15.80;;
66425;SDS011;53237;46.158;14.604;2022-10-19T04:46:14;16.08;;;14.23;;
66425;SDS011;53237;46.158;14.604;2022-10-19T04:48:41;17.45;;;15.05;;
66425;SDS011;53237;46.158;14.604;2022-10-19T04:51:08;17.23;;;14.73;;
66425;SDS011;53237;46.158;14.604;2022-10-19T04:53:35;17.70;;;13.93;;
66425;SDS011;53237;46.158;14.604;2022-10-19T04:56:08;18.48;;;15.73;;
66425;SDS011;53237;46.158;14.604;2022-10-19T04:58:35;35.03;;;17.55;;
66425;SDS011;53237;46.158;14.604;2022-10-19T05:01:08;17.23;;;14.52;;
66425;SDS011;53237;46.158;14.604;2022-10-19T05:03:34;23.48;;;15.88;;
66425;SDS011;53237;46.158;14.604;2022-10-19T05:06:01;16.45;;;14.23;;
66425;SDS011;53237;46.158;14.604;2022-10-19T05:08:27;16.48;;;14.20;;
66425;SDS011;53237;46.158;14.604;2022-10-19T05:10:53;16.42;;;14.70;;
66425;SDS011;53237;46.158;14.604;2022-10-19T05:13:19;22.30;;;15.07;;
66425;SDS011;53237;46.158;14.604;2022-10-19T05:15:55;20.55;;;14.68;;
66425;SDS011;53237;46.158;14.604;2022-10-19T05:18:21;18.48;;;14.73;;
66425;SDS011;53237;46.158;14.604;2022-10-19T05:20:48;15.15;;;13.52;;
66425;SDS011;53237;46.158;14.604;2022-10-19T05:23:14;18.27;;;14.63;;
66425;SDS011;53237;46.158;14.604;2022-10-19T05:25:40;15.18;;;13.70;;
66425;SDS011;53237;46.158;14.604;2022-10-19T05:28:06;15.13;;;13.50;;
66425;SDS011;53237;46.158;14.604;2022-10-19T05:30:32;16.65;;;14.00;;
66425;SDS011;53237;46.158;14.604;2022-10-19T05:32:58;14.38;;;12.82;;
66425;SDS011;53237;46.158;14.604;2022-10-19T05:35:24;14.75;;;13.25;;
66425;SDS011;53237;46.158;14.604;2022-10-19T05:37:54;14.90;;;13.35;;
66425;SDS011;53237;46.158;14.604;2022-10-19T05:40:20;15.70;;;13.98;;
66425;SDS011;53237;46.158;14.604;2022-10-19T05:42:46;16.33;;;13.55;;
66425;SDS011;53237;46.158;14.604;2022-10-19T05:45:12;15.07;;;13.48;;
66425;SDS011;53237;46.158;14.604;2022-10-19T05:47:38;48.95;;;21.45;;
66425;SDS011;53237;46.158;14.604;2022-10-19T05:50:04;17.92;;;15.43;;
66425;SDS011;53237;46.158;14.604;2022-10-19T05:52:30;20.33;;;15.02;;
66425;SDS011;53237;46.158;14.604;2022-10-19T05:54:56;20.48;;;14.48;;
66425;SDS011;53237;46.158;14.604;2022-10-19T05:57:22;18.55;;;14.15;;
66425;SDS011;53237;46.158;14.604;2022-10-19T05:59:49;18.25;;;13.15;;
66425;SDS011;53237;46.158;14.604;2022-10-19T06:02:15;20.58;;;13.73;;
66425;SDS011;53237;46.158;14.604;2022-10-19T06:04:41;18.42;;;14.10;;
66425;SDS011;53237;46.158;14.604;2022-10-19T06:07:07;14.32;;;12.82;;
66425;SDS011;53237;46.158;14.604;2022-10-19T06:09:33;12.65;;;11.32;;
66425;SDS011;53237;46.158;14.604;2022-10-19T06:12:01;15.70;;;13.38;;
66425;SDS011;53237;46.158;14.604;2022-10-19T06:14:27;19.05;;;13.55;;
66425;SDS011;53237;46.158;14.604;2022-10-19T06:16:53;33.97;;;14.82;;
66425;SDS011;53237;46.158;14.604;2022-10-19T06:19:20;22.65;;;14.65;;
66425;SDS011;53237;46.158;14.604;2022-10-19T06:21:46;48.85;;;15.55;;
66425;SDS011;53237;46.158;14.604;2022-10-19T06:24:12;22.30;;;15.65;;
66425;SDS011;53237;46.158;14.604;2022-10-19T06:26:38;41.88;;;14.85;;
66425;SDS011;53237;46.158;14.604;2022-10-19T06:29:04;15.15;;;13.60;;
66425;SDS011;53237;46.158;14.604;2022-10-19T06:31:31;31.17;;;14.68;;
66425;SDS011;53237;46.158;14.604;2022-10-19T06:33:58;40.15;;;14.48;;
66425;SDS011;53237;46.158;14.604;2022-10-19T06:36:25;14.95;;;13.18;;
66425;SDS011;53237;46.158;14.604;2022-10-19T06:38:51;14.80;;;12.65;;
66425;SDS011;53237;46.158;14.604;2022-10-19T06:41:17;14.20;;;12.48;;
66425;SDS011;53237;46.158;14.604;2022-10-19T06:43:47;13.82;;;12.43;;
66425;SDS011;53237;46.158;14.604;2022-10-19T06:46:14;13.13;;;11.80;;
66425;SDS011;53237;46.158;14.604;2022-10-19T06:48:47;32.15;;;14.68;;
66425;SDS011;53237;46.158;14.604;2022-10-19T06:51:13;41.10;;;16.67;;
66425;SDS011;53237;46.158;14.604;2022-10-19T06:53:39;13.07;;;11.63;;
66425;SDS011;53237;46.158;14.604;2022-10-19T06:56:06;17.85;;;13.98;;
66425;SDS011;53237;46.158;14.604;2022-10-19T06:58:35;13.65;;;12.25;;
66425;SDS011;53237;46.158;14.604;2022-10-19T07:01:02;50.78;;;18.33;;
66425;SDS011;53237;46.158;14.604;2022-10-19T07:03:28;15.65;;;12.85;;
66425;SDS011;53237;46.158;14.604;2022-10-19T07:06:01;13.68;;;12.38;;
66425;SDS011;53237;46.158;14.604;2022-10-19T07:08:29;13.80;;;12.35;;
66425;SDS011;53237;46.158;14.604;2022-10-19T07:10:56;16.42;;;12.57;;
66425;SDS011;53237;46.158;14.604;2022-10-19T07:13:23;13.15;;;11.80;;
66425;SDS011;53237;46.158;14.604;2022-10-19T07:15:49;13.90;;;12.50;;
66425;SDS011;53237;46.158;14.604;2022-10-19T07:18:20;12.82;;;11.48;;
66425;SDS011;53237;46.158;14.604;2022-10-19T07:20:53;13.20;;;11.90;;
66425;SDS011;53237;46.158;14.604;2022-10-19T07:23:19;14.00;;;12.30;;
66425;SDS011;53237;46.158;14.604;2022-10-19T07:25:45;17.48;;;13.70;;
66425;SDS011;53237;46.158;14.604;2022-10-19T07:28:11;25.73;;;15.77;;
66425;SDS011;53237;46.158;14.604;2022-10-19T07:30:37;13.82;;;12.43;;
66425;SDS011;53237;46.158;14.604;2022-10-19T07:33:03;27.83;;;15.85;;
66425;SDS011;53237;46.158;14.604;2022-10-19T07:35:30;28.30;;;16.30;;
66425;SDS011;53237;46.158;14.604;2022-10-19T07:37:57;12.70;;;11.38;;
66425;SDS011;53237;46.158;14.604;2022-10-19T07:40:23;13.45;;;11.98;;
66425;SDS011;53237;46.158;14.604;2022-10-19T07:42:48;13.85;;;11.77;;
66425;SDS011;53237;46.158;14.604;2022-10-19T07:45:15;12.50;;;10.93;;
66425;SDS011;53237;46.158;14.604;2022-10-19T07:47:41;17.10;;;13.10;;
66425;SDS011;53237;46.158;14.604;2022-10-19T07:50:07;14.88;;;11.75;;
66425;SDS011;53237;46.158;14.604;2022-10-19T07:52:33;13.05;;;11.65;;
66425;SDS011;53237;46.158;14.604;2022-10-19T07:54:59;13.82;;;11.65;;
66425;SDS011;53237;46.158;14.604;2022-10-19T07:57:25;15.07;;;12.70;;
66425;SDS011;53237;46.158;14.604;2022-10-19T07:59:51;19.23;;;14.70;;
66425;SDS011;53237;46.158;14.604;2022-10-19T08:02:17;24.38;;;16.13;;
66425;SDS011;53237;46.158;14.604;2022-10-19T08:04:44;14.85;;;12.88;;
66425;SDS011;53237;46.158;14.604;2022-10-19T08:07:10;18.63;;;13.10;;
66425;SDS011;53237;46.158;14.604;2022-10-19T08:09:36;18.00;;;14.52;;
66425;SDS011;53237;46.158;14.604;2022-10-19T08:12:03;17.50;;;13.57;;
66425;SDS011;53237;46.158;14.604;2022-10-19T08:14:29;12.57;;;11.23;;
66425;SDS011;53237;46.158;14.604;2022-10-19T08:16:55;13.18;;;11.23;;
66425;SDS011;53237;46.158;14.604;2022-10-19T08:19:21;13.90;;;12.25;;
66425;SDS011;53237;46.158;14.604;2022-10-19T08:21:48;14.68;;;12.18;;
66425;SDS011;53237;46.158;14.604;2022-10-19T08:24:15;21.38;;;17.77;;
66425;SDS011;53237;46.158;14.604;2022-10-19T08:26:41;25.20;;;19.30;;
66425;SDS011;53237;46.158;14.604;2022-10-19T08:29:14;15.55;;;13.45;;
66425;SDS011;53237;46.158;14.604;2022-10-19T08:31:41;25.10;;;19.67;;
66425;SDS011;53237;46.158;14.604;2022-10-19T08:34:08;24.45;;;20.98;;
66425;SDS011;53237;46.158;14.604;2022-10-19T08:36:34;31.05;;;22.33;;
66425;SDS011;53237;46.158;14.604;2022-10-19T08:39:05;18.83;;;16.48;;
66425;SDS011;53237;46.158;14.604;2022-10-19T08:51:53;18.38;;;16.38;;
66425;SDS011;53237;46.158;14.604;2022-10-19T08:54:21;22.08;;;16.83;;
66425;SDS011;53237;46.158;14.604;2022-10-19T08:56:47;14.27;;;12.88;;
66425;SDS011;53237;46.158;14.604;2022-10-19T09:01:56;15.20;;;13.60;;
66425;SDS011;53237;46.158;14.604;2022-10-19T09:04:25;14.30;;;12.80;;
66425;SDS011;53237;46.158;14.604;2022-10-19T09:09:39;17.77;;;15.13;;
66425;SDS011;53237;46.158;14.604;2022-10-19T09:12:06;13.23;;;11.82;;
66425;SDS011;53237;46.158;14.604;2022-10-19T09:17:02;15.02;;;13.55;;
66425;SDS011;53237;46.158;14.604;2022-10-19T09:19:28;16.02;;;14.35;;
66425;SDS011;53237;46.158;14.604;2022-10-19T09:24:41;15.77;;;14.27;;
66425;SDS011;53237;46.158;14.604;2022-10-19T09:27:24;20.00;;;17.63;;
66425;SDS011;53237;46.158;14.604;2022-10-19T09:29:54;21.17;;;18.92;;
66425;SDS011;53237;46.158;14.604;2022-10-19T09:32:24;27.02;;;23.42;;
66425;SDS011;53237;46.158;14.604;2022-10-19T09:34:55;17.00;;;15.32;;
66425;SDS011;53237;46.158;14.604;2022-10-19T09:37:22;32.22;;;26.45;;
66425;SDS011;53237;46.158;14.604;2022-10-19T09:39:49;65.35;;;44.47;;
66425;SDS011;53237;46.158;14.604;2022-10-19T09:42:26;31.55;;;24.90;;
66425;SDS011;53237;46.158;14.604;2022-10-19T09:45:00;18.27;;;15.53;;
66425;SDS011;53237;46.158;14.604;2022-10-19T09:47:30;21.67;;;19.20;;
66425;SDS011;53237;46.158;14.604;2022-10-19T09:52:42;17.90;;;16.00;;
66425;SDS011;53237;46.158;14.604;2022-10-19T09:58:01;23.27;;;20.88;;
66425;SDS011;53237;46.158;14.604;2022-10-19T10:00:32;16.25;;;14.65;;
66425;SDS011;53237;46.158;14.604;2022-10-19T10:02:58;25.00;;;22.38;;
66425;SDS011;53237;46.158;14.604;2022-10-19T10:07:56;15.95;;;14.25;;
66425;SDS011;53237;46.158;14.604;2022-10-19T10:10:24;23.75;;;21.33;;
66425;SDS011;53237;46.158;14.604;2022-10-19T10:12:52;16.85;;;15.15;;
66425;SDS011;53237;46.158;14.604;2022-10-19T10:15:20;16.90;;;15.07;;
66425;SDS011;53237;46.158;14.604;2022-10-19T10:17:47;21.77;;;19.67;;
66425;SDS011;53237;46.158;14.604;2022-10-19T10:22:50;23.48;;;21.20;;
66425;SDS011;53237;46.158;14.604;2022-10-19T10:25:17;23.73;;;20.85;;
66425;SDS011;53237;46.158;14.604;2022-10-19T10:27:45;15.90;;;14.20;;
66425;SDS011;53237;46.158;14.604;2022-10-19T10:30:18;15.55;;;13.95;;
66425;SDS011;53237;46.158;14.604;2022-10-19T10:32:47;15.82;;;14.23;;
66425;SDS011;53237;46.158;14.604;2022-10-19T10:35:21;18.75;;;16.73;;
66425;SDS011;53237;46.158;14.604;2022-10-19T10:37:48;20.17;;;18.20;;
66425;SDS011;53237;46.158;14.604;2022-10-19T10:42:47;22.38;;;20.08;;
66425;SDS011;53237;46.158;14.604;2022-10-19T10:47:49;15.65;;;14.05;;
66425;SDS011;53237;46.158;14.604;2022-10-19T10:50:19;16.85;;;15.15;;
66425;SDS011;53237;46.158;14.604;2022-10-19T10:52:56;18.42;;;16.52;;
66425;SDS011;53237;46.158;14.604;2022-10-19T10:55:22;23.13;;;20.02;;
66425;SDS011;53237;46.158;14.604;2022-10-19T10:57:50;15.95;;;14.45;;
66425;SDS011;53237;46.158;14.604;2022-10-19T11:00:19;19.17;;;16.90;;
66425;SDS011;53237;46.158;14.604;2022-10-19T11:10:42;23.85;;;21.35;;
66425;SDS011;53237;46.158;14.604;2022-10-19T11:13:13;18.05;;;16.17;;
66425;SDS011;53237;46.158;14.604;2022-10-19T11:18:36;16.35;;;14.73;;
66425;SDS011;53237;46.158;14.604;2022-10-19T11:21:07;16.15;;;14.57;;
66425;SDS011;53237;46.158;14.604;2022-10-19T11:23:45;17.75;;;15.77;;
66425;SDS011;53237;46.158;14.604;2022-10-19T11:28:56;16.70;;;14.95;;
66425;SDS011;53237;46.158;14.604;2022-10-19T11:31:31;16.45;;;14.85;;
66425;SDS011;53237;46.158;14.604;2022-10-19T11:41:57;21.48;;;18.42;;
66425;SDS011;53237;46.158;14.604;2022-10-19T11:44:27;16.65;;;14.95;;
66425;SDS011;53237;46.158;14.604;2022-10-19T11:52:26;18.13;;;16.25;;
66425;SDS011;53237;46.158;14.604;2022-10-19T11:57:29;16.50;;;14.07;;
66425;SDS011;53237;46.158;14.604;2022-10-19T12:00:00;15.98;;;14.38;;
66425;SDS011;53237;46.158;14.604;2022-10-19T12:04:55;19.42;;;17.30;;
66425;SDS011;53237;46.158;14.604;2022-10-19T12:10:10;19.15;;;17.25;;
66425;SDS011;53237;46.158;14.604;2022-10-19T12:12:57;17.60;;;15.80;;
66425;SDS011;53237;46.158;14.604;2022-10-19T12:15:37;16.23;;;14.63;;
66425;SDS011;53237;46.158;14.604;2022-10-19T12:18:47;16.13;;;14.43;;
66425;SDS011;53237;46.158;14.604;2022-10-19T12:20:54;16.08;;;14.48;;
66425;SDS011;53237;46.158;14.604;2022-10-19T12:23:27;17.17;;;15.38;;
66425;SDS011;53237;46.158;14.604;2022-10-19T12:25:55;15.60;;;14.10;;
66425;SDS011;53237;46.158;14.604;2022-10-19T12:28:26;16.67;;;15.07;;
66425;SDS011;53237;46.158;14.604;2022-10-19T12:30:53;15.27;;;13.77;;
66425;SDS011;53237;46.158;14.604;2022-10-19T12:33:43;16.30;;;14.60;;
66425;SDS011;53237;46.158;14.604;2022-10-19T12:41:18;18.13;;;16.23;;
66425;SDS011;53237;46.158;14.604;2022-10-19T12:46:34;18.15;;;16.25;;
66425;SDS011;53237;46.158;14.604;2022-10-19T12:51:46;17.17;;;15.38;;
66425;SDS011;53237;46.158;14.604;2022-10-19T12:54:12;18.60;;;15.73;;
66425;SDS011;53237;46.158;14.604;2022-10-19T12:56:49;15.07;;;13.60;;
66425;SDS011;53237;46.158;14.604;2022-10-19T13:01:49;16.67;;;14.98;;
66425;SDS011;53237;46.158;14.604;2022-10-19T13:04:17;19.20;;;15.88;;
66425;SDS011;53237;46.158;14.604;2022-10-19T13:06:50;18.83;;;16.83;;
66425;SDS011;53237;46.158;14.604;2022-10-19T13:09:28;19.08;;;17.17;;
66425;SDS011;53237;46.158;14.604;2022-10-19T13:14:59;15.93;;;14.43;;
66425;SDS011;53237;46.158;14.604;2022-10-19T13:22:39;15.13;;;13.63;;
66425;SDS011;53237;46.158;14.604;2022-10-19T13:27:45;16.33;;;14.63;;
66425;SDS011;53237;46.158;14.604;2022-10-19T13:32:55;16.80;;;14.60;;
66425;SDS011;53237;46.158;14.604;2022-10-19T13:35:31;16.08;;;13.90;;
66425;SDS011;53237;46.158;14.604;2022-10-19T13:40:36;16.15;;;14.43;;
66425;SDS011;53237;46.158;14.604;2022-10-19T13:43:03;18.35;;;14.43;;
66425;SDS011;53237;46.158;14.604;2022-10-19T13:45:29;14.93;;;13.35;;
66425;SDS011;53237;46.158;14.604;2022-10-19T13:47:57;16.45;;;14.52;;
66425;SDS011;53237;46.158;14.604;2022-10-19T13:50:38;16.58;;;14.05;;
66425;SDS011;53237;46.158;14.604;2022-10-19T13:53:10;16.13;;;14.05;;
66425;SDS011;53237;46.158;14.604;2022-10-19T14:11:54;16.13;;;14.43;;
66425;SDS011;53237;46.158;14.604;2022-10-19T14:14:30;17.35;;;15.65;;
66425;SDS011;53237;46.158;14.604;2022-10-19T14:17:03;15.88;;;14.20;;
66425;SDS011;53237;46.158;14.604;2022-10-19T14:19:48;16.80;;;14.95;;
66425;SDS011;53237;46.158;14.604;2022-10-19T14:22:26;15.93;;;14.30;;
66425;SDS011;53237;46.158;14.604;2022-10-19T14:27:23;15.88;;;14.38;;
66425;SDS011;53237;46.158;14.604;2022-10-19T14:29:50;17.80;;;13.77;;
66425;SDS011;53237;46.158;14.604;2022-10-19T14:32:18;15.32;;;13.43;;
66425;SDS011;53237;46.158;14.604;2022-10-19T14:34:46;17.88;;;16.00;;
66425;SDS011;53237;46.158;14.604;2022-10-19T14:37:15;21.33;;;16.35;;
66425;SDS011;53237;46.158;14.604;2022-10-19T14:39:42;15.57;;;13.95;;
66425;SDS011;53237;46.158;14.604;2022-10-19T14:42:08;16.80;;;14.82;;
66425;SDS011;53237;46.158;14.604;2022-10-19T14:44:36;17.60;;;15.80;;
66425;SDS011;53237;46.158;14.604;2022-10-19T14:47:15;16.25;;;14.10;;
66425;SDS011;53237;46.158;14.604;2022-10-19T14:49:42;16.88;;;15.18;;
66425;SDS011;53237;46.158;14.604;2022-10-19T14:52:08;16.20;;;14.50;;
66425;SDS011;53237;46.158;14.604;2022-10-19T14:54:37;16.42;;;14.77;;
66425;SDS011;53237;46.158;14.604;2022-10-19T14:57:11;15.48;;;13.88;;
66425;SDS011;53237;46.158;14.604;2022-10-19T14:59:49;18.80;;;14.95;;
66425;SDS011;53237;46.158;14.604;2022-10-19T15:02:22;16.90;;;15.20;;
66425;SDS011;53237;46.158;14.604;2022-10-19T15:04:51;16.92;;;15.15;;
66425;SDS011;53237;46.158;14.604;2022-10-19T15:07:20;18.05;;;15.80;;
66425;SDS011;53237;46.158;14.604;2022-10-19T15:09:51;20.00;;;16.02;;
66425;SDS011;53237;46.158;14.604;2022-10-19T15:12:20;18.95;;;16.55;;
66425;SDS011;53237;46.158;14.604;2022-10-19T15:14:47;18.40;;;16.50;;
66425;SDS011;53237;46.158;14.604;2022-10-19T15:17:20;20.10;;;16.25;;
66425;SDS011;53237;46.158;14.604;2022-10-19T15:19:47;21.23;;;16.38;;
66425;SDS011;53237;46.158;14.604;2022-10-19T15:22:18;18.60;;;16.40;;
66425;SDS011;53237;46.158;14.604;2022-10-19T15:24:55;18.45;;;16.17;;
66425;SDS011;53237;46.158;14.604;2022-10-19T15:27:22;19.30;;;16.65;;
66425;SDS011;53237;46.158;14.604;2022-10-19T15:29:53;18.88;;;16.40;;
66425;SDS011;53237;46.158;14.604;2022-10-19T15:32:36;19.65;;;15.90;;
66425;SDS011;53237;46.158;14.604;2022-10-19T15:35:36;19.75;;;16.65;;
66425;SDS011;53237;46.158;14.604;2022-10-19T15:37:58;17.55;;;15.73;;
66425;SDS011;53237;46.158;14.604;2022-10-19T15:40:28;18.63;;;16.40;;
66425;SDS011;53237;46.158;14.604;2022-10-19T15:42:56;17.95;;;16.08;;
66425;SDS011;53237;46.158;14.604;2022-10-19T15:45:33;18.35;;;16.50;;
66425;SDS011;53237;46.158;14.604;2022-10-19T15:50:38;18.40;;;16.40;;
66425;SDS011;53237;46.158;14.604;2022-10-19T15:53:07;18.05;;;16.13;;
66425;SDS011;53237;46.158;14.604;2022-10-19T15:55:33;18.45;;;16.55;;
66425;SDS011;53237;46.158;14.604;2022-10-19T15:57:59;20.42;;;18.35;;
66425;SDS011;53237;46.158;14.604;2022-10-19T16:00:25;20.75;;;18.65;;
66425;SDS011;53237;46.158;14.604;2022-10-19T16:02:53;20.75;;;17.77;;
66425;SDS011;53237;46.158;14.604;2022-10-19T16:05:19;19.85;;;17.58;;
66425;SDS011;53237;46.158;14.604;2022-10-19T16:07:45;20.33;;;17.58;;
66425;SDS011;53237;46.158;14.604;2022-10-19T16:10:16;22.48;;;19.20;;
66425;SDS011;53237;46.158;14.604;2022-10-19T16:12:42;22.75;;;19.52;;
66425;SDS011;53237;46.158;14.604;2022-10-19T16:15:10;23.83;;;19.88;;
66425;SDS011;53237;46.158;14.604;2022-10-19T16:17:37;21.10;;;18.80;;
66425;SDS011;53237;46.158;14.604;2022-10-19T16:20:03;19.75;;;17.65;;
66425;SDS011;53237;46.158;14.604;2022-10-19T16:22:30;30.00;;;22.52;;
66425;SDS011;53237;46.158;14.604;2022-10-19T16:24:56;29.55;;;21.50;;
66425;SDS011;53237;46.158;14.604;2022-10-19T16:27:22;29.17;;;25.63;;
66425;SDS011;53237;46.158;14.604;2022-10-19T16:29:48;43.33;;;37.47;;
66425;SDS011;53237;46.158;14.604;2022-10-19T16:32:14;43.90;;;35.08;;
66425;SDS011;53237;46.158;14.604;2022-10-19T16:34:40;21.35;;;19.23;;
66425;SDS011;53237;46.158;14.604;2022-10-19T16:37:06;35.88;;;30.40;;
66425;SDS011;53237;46.158;14.604;2022-10-19T16:39:32;39.70;;;33.50;;
66425;SDS011;53237;46.158;14.604;2022-10-19T16:41:58;25.88;;;22.52;;
66425;SDS011;53237;46.158;14.604;2022-10-19T16:44:24;31.27;;;26.55;;
66425;SDS011;53237;46.158;14.604;2022-10-19T16:46:50;21.65;;;19.30;;